sensor_id;sensor_type;location;lat;lon;timestamp;pressure;altitude;pressure_sealevel;temperature;humidity
75913;BME280;64592;52.168;21.040;2023-02-28T00:03:57;101908.16;;;-2.14;65.72
75913;BME280;64592;52.168;21.040;2023-02-28T00:08:59;101915.22;;;-2.15;66.15
75913;BME280;64592;52.168;21.040;2023-02-28T00:14:01;101920.50;;;-2.16;65.06
75913;BME280;64592;52.168;21.040;2023-02-28T00:19:04;101913.44;;;-2.14;66.20
75913;BME280;64592;52.168;21.040;2023-02-28T00:24:06;101921.38;;;-2.14;65.41
75913;BME280;64592;52.168;21.040;2023-02-28T00:29:08;101927.56;;;-2.15;65.40
75913;BME280;64592;52.168;21.040;2023-02-28T00:34:11;101927.53;;;-2.21;66.34
75913;BME280;64592;52.168;21.040;2023-02-28T00:39:12;101924.03;;;-2.23;66.06
75913;BME280;64592;52.168;21.040;2023-02-28T00:44:14;101926.66;;;-2.23;66.41
75913;BME280;64592;52.168;21.040;2023-02-28T00:49:17;101919.59;;;-2.26;66.46
75913;BME280;64592;52.168;21.040;2023-02-28T00:54:19;101923.97;;;-2.29;66.45
75913;BME280;64592;52.168;21.040;2023-02-28T00:59:21;101925.75;;;-2.31;67.60
75913;BME280;64592;52.168;21.040;2023-02-28T01:04:24;101920.44;;;-2.44;67.31
75913;BME280;64592;52.168;21.040;2023-02-28T01:09:26;101920.44;;;-2.53;69.15
75913;BME280;64592;52.168;21.040;2023-02-28T01:14:28;101925.66;;;-2.62;69.63
75913;BME280;64592;52.168;21.040;2023-02-28T01:19:31;101921.25;;;-2.69;70.34
75913;BME280;64592;52.168;21.040;2023-02-28T01:24:33;101917.69;;;-2.72;69.42
75913;BME280;64592;52.168;21.040;2023-02-28T01:29:34;101922.09;;;-2.73;69.38
75913;BME280;64592;52.168;21.040;2023-02-28T01:34:38;101915.94;;;-2.74;69.46
75913;BME280;64592;52.168;21.040;2023-02-28T01:39:39;101916.81;;;-2.73;69.16
75913;BME280;64592;52.168;21.040;2023-02-28T01:44:59;101922.09;;;-2.76;69.76
75913;BME280;64592;52.168;21.040;2023-02-28T01:50:07;101928.19;;;-2.88;71.01
75913;BME280;64592;52.168;21.040;2023-02-28T01:55:12;101928.19;;;-2.91;71.15
75913;BME280;64592;52.168;21.040;2023-02-28T02:00:16;101928.16;;;-2.98;72.83
75913;BME280;64592;52.168;21.040;2023-02-28T02:05:21;101924.63;;;-3.00;71.43
75913;BME280;64592;52.168;21.040;2023-02-28T02:10:29;101924.63;;;-2.97;71.11
75913;BME280;64592;52.168;21.040;2023-02-28T02:15:34;101922.00;;;-2.97;70.58
75913;BME280;64592;52.168;21.040;2023-02-28T02:21:11;101919.34;;;-2.94;69.75
75913;BME280;64592;52.168;21.040;2023-02-28T02:26:47;101929.03;;;-2.93;70.10
75913;BME280;64592;52.168;21.040;2023-02-28T02:32:13;101929.91;;;-2.94;70.54
75913;BME280;64592;52.168;21.040;2023-02-28T02:37:25;101932.56;;;-2.97;72.10
75913;BME280;64592;52.168;21.040;2023-02-28T02:42:38;101927.25;;;-3.00;71.54
75913;BME280;64592;52.168;21.040;2023-02-28T02:47:42;101932.50;;;-3.02;71.91
75913;BME280;64592;52.168;21.040;2023-02-28T02:52:49;101939.53;;;-3.05;72.88
75913;BME280;64592;52.168;21.040;2023-02-28T02:57:54;101938.63;;;-3.09;73.15
75913;BME280;64592;52.168;21.040;2023-02-28T03:02:57;101935.94;;;-3.17;73.58
75913;BME280;64592;52.168;21.040;2023-02-28T03:08:03;101942.06;;;-3.24;73.03
75913;BME280;64592;52.168;21.040;2023-02-28T03:13:18;101942.00;;;-3.30;72.57
75913;BME280;64592;52.168;21.040;2023-02-28T03:18:32;101943.72;;;-3.33;73.83
75913;BME280;64592;52.168;21.040;2023-02-28T03:23:43;101945.53;;;-3.34;73.60
75913;BME280;64592;52.168;21.040;2023-02-28T03:28:53;101938.47;;;-3.36;74.38
75913;BME280;64592;52.168;21.040;2023-02-28T03:34:00;101950.75;;;-3.38;74.31
75913;BME280;64592;52.168;21.040;2023-02-28T03:39:07;101951.59;;;-3.44;74.49
75913;BME280;64592;52.168;21.040;2023-02-28T03:44:13;101949.81;;;-3.45;75.05
75913;BME280;64592;52.168;21.040;2023-02-28T03:49:20;101955.94;;;-3.47;75.49
75913;BME280;64592;52.168;21.040;2023-02-28T03:54:28;101960.31;;;-3.51;76.10
75913;BME280;64592;52.168;21.040;2023-02-28T03:59:34;101962.03;;;-3.56;75.57
75913;BME280;64592;52.168;21.040;2023-02-28T04:04:38;101961.13;;;-3.58;74.88
75913;BME280;64592;52.168;21.040;2023-02-28T04:09:49;101955.84;;;-3.60;74.34
75913;BME280;64592;52.168;21.040;2023-02-28T04:14:51;101956.72;;;-3.59;74.18
75913;BME280;64592;52.168;21.040;2023-02-28T04:19:53;101949.72;;;-3.57;74.82
75913;BME280;64592;52.168;21.040;2023-02-28T04:24:59;101961.09;;;-3.61;73.88
75913;BME280;64592;52.168;21.040;2023-02-28T04:30:00;101959.38;;;-3.59;73.81
75913;BME280;64592;52.168;21.040;2023-02-28T04:35:03;101961.13;;;-3.58;75.24
75913;BME280;64592;52.168;21.040;2023-02-28T04:40:07;101964.69;;;-3.56;75.27
75913;BME280;64592;52.168;21.040;2023-02-28T04:45:09;101963.75;;;-3.61;76.03
75913;BME280;64592;52.168;21.040;2023-02-28T04:50:11;101964.59;;;-3.65;76.02
75913;BME280;64592;52.168;21.040;2023-02-28T04:55:14;101961.00;;;-3.70;76.10
75913;BME280;64592;52.168;21.040;2023-02-28T05:00:17;101965.41;;;-3.72;76.26
75913;BME280;64592;52.168;21.040;2023-02-28T05:05:19;101974.16;;;-3.76;74.99
75913;BME280;64592;52.168;21.040;2023-02-28T05:10:21;101973.28;;;-3.78;75.96
75913;BME280;64592;52.168;21.040;2023-02-28T05:15:23;101982.03;;;-3.76;75.29
75913;BME280;64592;52.168;21.040;2023-02-28T05:20:25;101983.81;;;-3.78;75.96
75913;BME280;64592;52.168;21.040;2023-02-28T05:25:28;101991.72;;;-3.78;76.79
75913;BME280;64592;52.168;21.040;2023-02-28T05:30:30;101993.44;;;-3.77;76.04
75913;BME280;64592;52.168;21.040;2023-02-28T05:35:32;102004.06;;;-3.71;75.81
75913;BME280;64592;52.168;21.040;2023-02-28T05:40:38;102009.34;;;-3.68;75.49
75913;BME280;64592;52.168;21.040;2023-02-28T05:45:39;102011.13;;;-3.66;76.07
75913;BME280;64592;52.168;21.040;2023-02-28T05:50:41;102019.94;;;-3.64;76.54
75913;BME280;64592;52.168;21.040;2023-02-28T05:55:46;102019.06;;;-3.64;76.26
75913;BME280;64592;52.168;21.040;2023-02-28T06:00:48;102023.44;;;-3.62;76.74
75913;BME280;64592;52.168;21.040;2023-02-28T06:05:49;102025.25;;;-3.59;76.63
75913;BME280;64592;52.168;21.040;2023-02-28T06:10:53;102032.28;;;-3.55;75.96
75913;BME280;64592;52.168;21.040;2023-02-28T06:15:54;102035.81;;;-3.56;75.46
75913;BME280;64592;52.168;21.040;2023-02-28T06:20:56;102035.84;;;-3.52;75.36
75913;BME280;64592;52.168;21.040;2023-02-28T06:25:59;102030.63;;;-3.47;75.57
75913;BME280;64592;52.168;21.040;2023-02-28T06:31:06;102035.97;;;-3.38;75.31
75913;BME280;64592;52.168;21.040;2023-02-28T06:36:09;102039.56;;;-3.28;74.76
75913;BME280;64592;52.168;21.040;2023-02-28T06:41:13;102026.44;;;-3.22;73.84
75913;BME280;64592;52.168;21.040;2023-02-28T06:46:14;102023.00;;;-3.10;73.99
75913;BME280;64592;52.168;21.040;2023-02-28T06:51:18;102018.69;;;-2.99;73.69
75913;BME280;64592;52.168;21.040;2023-02-28T06:56:21;102018.75;;;-2.87;73.35
75913;BME280;64592;52.168;21.040;2023-02-28T07:01:23;102008.25;;;-2.78;73.25
75913;BME280;64592;52.168;21.040;2023-02-28T07:06:25;102010.06;;;-2.71;72.85
75913;BME280;64592;52.168;21.040;2023-02-28T07:11:29;102004.84;;;-2.59;72.53
75913;BME280;64592;52.168;21.040;2023-02-28T07:16:30;102009.31;;;-2.47;72.12
75913;BME280;64592;52.168;21.040;2023-02-28T07:21:32;102003.19;;;-2.36;71.58
75913;BME280;64592;52.168;21.040;2023-02-28T07:26:35;102016.44;;;-2.22;71.34
75913;BME280;64592;52.168;21.040;2023-02-28T07:31:37;102020.00;;;-2.06;71.12
75913;BME280;64592;52.168;21.040;2023-02-28T07:36:39;102013.88;;;-1.96;69.69
75913;BME280;64592;52.168;21.040;2023-02-28T07:41:41;102007.75;;;-1.78;68.04
75913;BME280;64592;52.168;21.040;2023-02-28T07:46:44;102007.78;;;-1.65;67.01
75913;BME280;64592;52.168;21.040;2023-02-28T07:51:46;102015.72;;;-1.52;65.69
75913;BME280;64592;52.168;21.040;2023-02-28T07:56:49;102013.06;;;-1.43;65.35
75913;BME280;64592;52.168;21.040;2023-02-28T08:01:50;102007.78;;;-1.31;64.40
75913;BME280;64592;52.168;21.040;2023-02-28T08:06:52;102010.41;;;-1.16;61.68
75913;BME280;64592;52.168;21.040;2023-02-28T08:11:55;102015.72;;;-1.04;62.10
75913;BME280;64592;52.168;21.040;2023-02-28T08:16:57;102013.94;;;-0.99;60.42
75913;BME280;64592;52.168;21.040;2023-02-28T08:21:58;102002.44;;;-0.92;60.63
75913;BME280;64592;52.168;21.040;2023-02-28T08:27:02;102009.47;;;-0.80;59.76
75913;BME280;64592;52.168;21.040;2023-02-28T08:32:04;102001.50;;;-0.72;58.76
75913;BME280;64592;52.168;21.040;2023-02-28T08:37:06;101994.44;;;-0.64;58.81
75913;BME280;64592;52.168;21.040;2023-02-28T08:42:09;102006.75;;;-0.57;59.19
75913;BME280;64592;52.168;21.040;2023-02-28T08:47:10;102002.34;;;-0.55;57.51
75913;BME280;64592;52.168;21.040;2023-02-28T08:52:12;102002.31;;;-0.49;58.53
75913;BME280;64592;52.168;21.040;2023-02-28T08:57:15;102005.81;;;-0.41;59.35
75913;BME280;64592;52.168;21.040;2023-02-28T09:02:17;102013.75;;;-0.30;57.06
75913;BME280;64592;52.168;21.040;2023-02-28T09:07:19;102015.47;;;-0.23;57.39
75913;BME280;64592;52.168;21.040;2023-02-28T09:12:23;102011.03;;;-0.20;58.09
75913;BME280;64592;52.168;21.040;2023-02-28T09:17:25;102009.25;;;-0.16;57.28
75913;BME280;64592;52.168;21.040;2023-02-28T09:22:27;102018.06;;;-0.14;56.51
75913;BME280;64592;52.168;21.040;2023-02-28T09:27:30;102019.78;;;-0.07;56.53
75913;BME280;64592;52.168;21.040;2023-02-28T09:32:31;102016.25;;;0.00;56.37
75913;BME280;64592;52.168;21.040;2023-02-28T09:37:33;102016.16;;;0.09;56.69
75913;BME280;64592;52.168;21.040;2023-02-28T09:42:36;102024.09;;;0.17;55.58
75913;BME280;64592;52.168;21.040;2023-02-28T09:47:41;102015.19;;;0.24;55.34
75913;BME280;64592;52.168;21.040;2023-02-28T09:52:48;102006.34;;;0.26;55.19
75913;BME280;64592;52.168;21.040;2023-02-28T09:57:53;102009.84;;;0.36;56.04
75913;BME280;64592;52.168;21.040;2023-02-28T10:08:36;102010.63;;;0.50;55.21
75913;BME280;64592;52.168;21.040;2023-02-28T10:13:51;102018.56;;;0.50;54.33
75913;BME280;64592;52.168;21.040;2023-02-28T10:18:58;102015.91;;;0.49;54.13
75913;BME280;64592;52.168;21.040;2023-02-28T10:24:13;102018.59;;;0.46;54.66
75913;BME280;64592;52.168;21.040;2023-02-28T10:29:21;102006.19;;;0.49;54.60
75913;BME280;64592;52.168;21.040;2023-02-28T10:34:24;102008.72;;;0.64;54.69
75913;BME280;64592;52.168;21.040;2023-02-28T10:39:40;102012.16;;;0.78;55.19
75913;BME280;64592;52.168;21.040;2023-02-28T10:44:44;102009.41;;;0.86;53.41
75913;BME280;64592;52.168;21.040;2023-02-28T10:49:49;102004.88;;;0.99;52.74
75913;BME280;64592;52.168;21.040;2023-02-28T10:55:13;102010.00;;;1.17;52.97
75913;BME280;64592;52.168;21.040;2023-02-28T11:00:19;101992.97;;;1.38;53.16
75913;BME280;64592;52.168;21.040;2023-02-28T11:05:29;101985.59;;;1.60;54.02
75913;BME280;64592;52.168;21.040;2023-02-28T11:10:32;101988.19;;;1.64;51.80
75913;BME280;64592;52.168;21.040;2023-02-28T11:15:36;101973.00;;;1.77;51.24
75913;BME280;64592;52.168;21.040;2023-02-28T11:20:38;101963.09;;;1.88;51.09
75913;BME280;64592;52.168;21.040;2023-02-28T11:25:47;101965.28;;;2.18;51.68
75913;BME280;64592;52.168;21.040;2023-02-28T11:31:01;101957.72;;;2.48;50.45
75913;BME280;64592;52.168;21.040;2023-02-28T11:36:10;101944.16;;;2.64;49.86
75913;BME280;64592;52.168;21.040;2023-02-28T11:41:43;101932.06;;;2.94;49.86
75913;BME280;64592;52.168;21.040;2023-02-28T11:46:54;101940.66;;;3.10;47.73
75913;BME280;64592;52.168;21.040;2023-02-28T11:52:01;101930.63;;;3.23;48.32
75913;BME280;64592;52.168;21.040;2023-02-28T11:57:19;101920.09;;;3.60;47.56
75913;BME280;64592;52.168;21.040;2023-02-28T12:02:26;101902.63;;;3.85;46.13
75913;BME280;64592;52.168;21.040;2023-02-28T12:07:35;101908.56;;;4.35;45.52
75913;BME280;64592;52.168;21.040;2023-02-28T12:12:45;101904.28;;;4.61;43.77
75913;BME280;64592;52.168;21.040;2023-02-28T12:17:59;101903.47;;;4.92;43.78
75913;BME280;64592;52.168;21.040;2023-02-28T12:23:27;101898.59;;;5.38;42.36
75913;BME280;64592;52.168;21.040;2023-02-28T12:28:41;101888.66;;;5.71;42.19
75913;BME280;64592;52.168;21.040;2023-02-28T12:33:50;101884.75;;;6.12;41.70
75913;BME280;64592;52.168;21.040;2023-02-28T12:38:55;101883.31;;;6.29;40.01
75913;BME280;64592;52.168;21.040;2023-02-28T12:44:03;101867.44;;;6.49;40.61
75913;BME280;64592;52.168;21.040;2023-02-28T12:49:13;101869.41;;;6.69;40.11
75913;BME280;64592;52.168;21.040;2023-02-28T12:54:22;101860.56;;;6.91;39.23
75913;BME280;64592;52.168;21.040;2023-02-28T12:59:27;101863.19;;;6.93;38.19
75913;BME280;64592;52.168;21.040;2023-02-28T13:04:56;101866.91;;;7.14;38.42
75913;BME280;64592;52.168;21.040;2023-02-28T13:10:04;101860.84;;;7.32;36.84
75913;BME280;64592;52.168;21.040;2023-02-28T13:15:12;101850.13;;;7.32;37.07
75913;BME280;64592;52.168;21.040;2023-02-28T13:20:21;101843.59;;;7.16;36.66
75913;BME280;64592;52.168;21.040;2023-02-28T13:25:52;101840.19;;;7.34;36.81
75913;BME280;64592;52.168;21.040;2023-02-28T13:31:04;101829.56;;;7.32;36.75
75913;BME280;64592;52.168;21.040;2023-02-28T13:36:12;101826.66;;;7.60;35.82
75913;BME280;64592;52.168;21.040;2023-02-28T13:41:48;101824.59;;;7.67;36.06
75913;BME280;64592;52.168;21.040;2023-02-28T13:47:22;101817.75;;;7.82;35.28
75913;BME280;64592;52.168;21.040;2023-02-28T13:52:26;101809.16;;;7.50;35.68
75913;BME280;64592;52.168;21.040;2023-02-28T13:57:38;101804.81;;;7.48;35.52
75913;BME280;64592;52.168;21.040;2023-02-28T14:03:06;101797.84;;;7.42;36.06
75913;BME280;64592;52.168;21.040;2023-02-28T14:08:16;101799.41;;;7.03;36.71
75913;BME280;64592;52.168;21.040;2023-02-28T14:13:38;101793.13;;;7.04;36.46
75913;BME280;64592;52.168;21.040;2023-02-28T14:18:49;101784.59;;;6.92;37.29
75913;BME280;64592;52.168;21.040;2023-02-28T14:24:15;101776.22;;;6.77;38.12
75913;BME280;64592;52.168;21.040;2023-02-28T14:29:32;101776.03;;;6.58;38.08
75913;BME280;64592;52.168;21.040;2023-02-28T14:34:43;101781.69;;;6.24;38.99
75913;BME280;64592;52.168;21.040;2023-02-28T14:39:51;101772.19;;;5.89;39.74
75913;BME280;64592;52.168;21.040;2023-02-28T14:44:54;101775.97;;;5.56;40.71
75913;BME280;64592;52.168;21.040;2023-02-28T14:49:56;101767.84;;;5.29;41.10
75913;BME280;64592;52.168;21.040;2023-02-28T14:55:01;101767.03;;;4.98;42.24
75913;BME280;64592;52.168;21.040;2023-02-28T15:00:10;101761.59;;;4.72;43.35
75913;BME280;64592;52.168;21.040;2023-02-28T15:05:27;101755.34;;;4.40;43.53
75913;BME280;64592;52.168;21.040;2023-02-28T15:10:31;101758.44;;;4.25;44.53
75913;BME280;64592;52.168;21.040;2023-02-28T15:15:41;101763.41;;;4.06;45.31
75913;BME280;64592;52.168;21.040;2023-02-28T15:20:45;101762.91;;;3.90;45.47
75913;BME280;64592;52.168;21.040;2023-02-28T15:25:48;101762.44;;;3.73;45.88
75913;BME280;64592;52.168;21.040;2023-02-28T15:30:54;101768.09;;;3.61;46.68
75913;BME280;64592;52.168;21.040;2023-02-28T15:36:10;101766.47;;;3.54;47.01
75913;BME280;64592;52.168;21.040;2023-02-28T15:41:25;101749.06;;;3.39;47.11
75913;BME280;64592;52.168;21.040;2023-02-28T15:46:27;101760.72;;;3.34;48.26
75913;BME280;64592;52.168;21.040;2023-02-28T15:51:31;101757.41;;;3.24;48.91
75913;BME280;64592;52.168;21.040;2023-02-28T15:56:38;101760.09;;;3.23;49.28
75913;BME280;64592;52.168;21.040;2023-02-28T16:01:40;101762.97;;;3.13;49.53
75913;BME280;64592;52.168;21.040;2023-02-28T16:06:42;101764.00;;;3.06;49.77
75913;BME280;64592;52.168;21.040;2023-02-28T16:11:48;101765.06;;;2.99;50.18
75913;BME280;64592;52.168;21.040;2023-02-28T16:16:52;101774.13;;;2.89;50.84
75913;BME280;64592;52.168;21.040;2023-02-28T16:21:54;101784.03;;;2.83;50.88
75913;BME280;64592;52.168;21.040;2023-02-28T16:26:57;101776.22;;;2.75;51.17
75913;BME280;64592;52.168;21.040;2023-02-28T16:32:00;101771.19;;;2.60;51.58
75913;BME280;64592;52.168;21.040;2023-02-28T16:37:04;101775.69;;;2.58;51.61
75913;BME280;64592;52.168;21.040;2023-02-28T16:42:15;101778.53;;;2.49;52.57
75913;BME280;64592;52.168;21.040;2023-02-28T16:47:18;101777.75;;;2.44;53.07
75913;BME280;64592;52.168;21.040;2023-02-28T16:52:19;101775.25;;;2.34;53.38
75913;BME280;64592;52.168;21.040;2023-02-28T16:57:23;101778.94;;;2.27;53.76
75913;BME280;64592;52.168;21.040;2023-02-28T17:02:25;101781.66;;;2.24;53.95
75913;BME280;64592;52.168;21.040;2023-02-28T17:07:26;101794.16;;;2.19;54.52
75913;BME280;64592;52.168;21.040;2023-02-28T17:12:29;101796.13;;;2.08;55.22
75913;BME280;64592;52.168;21.040;2023-02-28T17:17:31;101803.31;;;2.02;55.17
75913;BME280;64592;52.168;21.040;2023-02-28T17:22:33;101802.53;;;1.98;55.09
75913;BME280;64592;52.168;21.040;2023-02-28T17:27:37;101804.34;;;1.93;55.37
75913;BME280;64592;52.168;21.040;2023-02-28T17:32:39;101807.13;;;1.87;56.07
75913;BME280;64592;52.168;21.040;2023-02-28T17:37:41;101814.31;;;1.80;56.62
75913;BME280;64592;52.168;21.040;2023-02-28T17:42:44;101808.19;;;1.77;56.40
75913;BME280;64592;52.168;21.040;2023-02-28T17:47:47;101801.16;;;1.73;57.08
75913;BME280;64592;52.168;21.040;2023-02-28T17:52:50;101797.69;;;1.68;57.89
75913;BME280;64592;52.168;21.040;2023-02-28T17:57:53;101801.34;;;1.62;57.66
75913;BME280;64592;52.168;21.040;2023-02-28T18:02:55;101801.38;;;1.58;58.63
75913;BME280;64592;52.168;21.040;2023-02-28T18:07:56;101794.38;;;1.53;58.84
75913;BME280;64592;52.168;21.040;2023-02-28T18:13:00;101790.94;;;1.47;58.93
75913;BME280;64592;52.168;21.040;2023-02-28T18:18:03;101776.03;;;1.37;59.62
75913;BME280;64592;52.168;21.040;2023-02-28T18:23:07;101771.69;;;1.31;60.15
75913;BME280;64592;52.168;21.040;2023-02-28T18:28:10;101780.59;;;1.27;59.67
75913;BME280;64592;52.168;21.040;2023-02-28T18:33:11;101767.41;;;1.20;60.57
75913;BME280;64592;52.168;21.040;2023-02-28T18:38:15;101752.56;;;1.08;61.52
75913;BME280;64592;52.168;21.040;2023-02-28T18:43:19;101745.56;;;1.01;61.12
75913;BME280;64592;52.168;21.040;2023-02-28T18:48:21;101750.97;;;0.95;61.13
75913;BME280;64592;52.168;21.040;2023-02-28T18:53:23;101752.88;;;0.85;61.65
75913;BME280;64592;52.168;21.040;2023-02-28T18:58:26;101742.44;;;0.70;62.28
75913;BME280;64592;52.168;21.040;2023-02-28T19:03:28;101740.75;;;0.64;62.76
75913;BME280;64592;52.168;21.040;2023-02-28T19:08:30;101741.72;;;0.57;62.83
75913;BME280;64592;52.168;21.040;2023-02-28T19:13:33;101756.78;;;0.55;63.67
75913;BME280;64592;52.168;21.040;2023-02-28T19:18:35;101751.50;;;0.52;63.64
75913;BME280;64592;52.168;21.040;2023-02-28T19:23:38;101758.66;;;0.46;63.48
75913;BME280;64592;52.168;21.040;2023-02-28T19:28:42;101773.75;;;0.41;64.54
75913;BME280;64592;52.168;21.040;2023-02-28T19:33:44;101782.66;;;0.35;64.74
75913;BME280;64592;52.168;21.040;2023-02-28T19:38:46;101785.38;;;0.26;65.23
75913;BME280;64592;52.168;21.040;2023-02-28T19:43:51;101782.00;;;0.12;65.84
75913;BME280;64592;52.168;21.040;2023-02-28T19:48:54;101779.47;;;-0.02;66.15
75913;BME280;64592;52.168;21.040;2023-02-28T19:53:55;101782.16;;;-0.07;66.53
75913;BME280;64592;52.168;21.040;2023-02-28T19:58:58;101792.81;;;-0.10;66.61
75913;BME280;64592;52.168;21.040;2023-02-28T20:04:00;101792.81;;;-0.13;67.14
75913;BME280;64592;52.168;21.040;2023-02-28T20:09:03;101791.94;;;-0.12;66.83
75913;BME280;64592;52.168;21.040;2023-02-28T20:14:06;101802.53;;;-0.10;66.51
75913;BME280;64592;52.168;21.040;2023-02-28T20:19:08;101791.03;;;-0.08;67.07
75913;BME280;64592;52.168;21.040;2023-02-28T20:24:10;101798.94;;;-0.05;67.49
75913;BME280;64592;52.168;21.040;2023-02-28T20:29:13;101798.94;;;-0.06;66.85
75913;BME280;64592;52.168;21.040;2023-02-28T20:34:15;101799.88;;;-0.09;67.43
75913;BME280;64592;52.168;21.040;2023-02-28T20:39:17;101792.81;;;-0.10;66.96
75913;BME280;64592;52.168;21.040;2023-02-28T20:44:20;101764.59;;;-0.17;67.63
75913;BME280;64592;52.168;21.040;2023-02-28T20:49:22;101760.19;;;-0.19;68.30
75913;BME280;64592;52.168;21.040;2023-02-28T20:54:24;101765.53;;;-0.22;68.10
75913;BME280;64592;52.168;21.040;2023-02-28T20:59:27;101773.50;;;-0.28;68.79
75913;BME280;64592;52.168;21.040;2023-02-28T21:04:28;101777.94;;;-0.29;68.27
75913;BME280;64592;52.168;21.040;2023-02-28T21:09:30;101775.34;;;-0.35;68.43
75913;BME280;64592;52.168;21.040;2023-02-28T21:14:33;101769.16;;;-0.35;68.82
75913;BME280;64592;52.168;21.040;2023-02-28T21:19:35;101766.56;;;-0.40;69.22
75913;BME280;64592;52.168;21.040;2023-02-28T21:24:36;101763.91;;;-0.42;68.96
75913;BME280;64592;52.168;21.040;2023-02-28T21:29:40;101761.31;;;-0.46;69.39
75913;BME280;64592;52.168;21.040;2023-02-28T21:34:41;101768.44;;;-0.57;70.32
75913;BME280;64592;52.168;21.040;2023-02-28T21:39:43;101763.19;;;-0.65;70.31
75913;BME280;64592;52.168;21.040;2023-02-28T21:44:46;101762.31;;;-0.65;70.84
75913;BME280;64592;52.168;21.040;2023-02-28T21:49:49;101765.94;;;-0.75;70.84
75913;BME280;64592;52.168;21.040;2023-02-28T21:54:51;101770.41;;;-0.84;70.97
75913;BME280;64592;52.168;21.040;2023-02-28T21:59:54;101773.97;;;-0.92;72.67
75913;BME280;64592;52.168;21.040;2023-02-28T22:04:56;101771.34;;;-0.92;71.90
75913;BME280;64592;52.168;21.040;2023-02-28T22:10:03;101766.03;;;-0.91;72.28
75913;BME280;64592;52.168;21.040;2023-02-28T22:15:07;101768.66;;;-0.88;72.27
75913;BME280;64592;52.168;21.040;2023-02-28T22:20:09;101760.69;;;-0.88;72.63
75913;BME280;64592;52.168;21.040;2023-02-28T22:25:12;101751.88;;;-0.84;71.97
75913;BME280;64592;52.168;21.040;2023-02-28T22:30:16;101751.00;;;-0.86;72.98
75913;BME280;64592;52.168;21.040;2023-02-28T22:35:18;101751.91;;;-0.93;73.52
75913;BME280;64592;52.168;21.040;2023-02-28T22:40:20;101739.56;;;-0.95;72.59
75913;BME280;64592;52.168;21.040;2023-02-28T22:45:23;101740.44;;;-0.92;73.08
75913;BME280;64592;52.168;21.040;2023-02-28T22:50:24;101741.34;;;-0.93;72.34
75913;BME280;64592;52.168;21.040;2023-02-28T22:55:26;101744.03;;;-1.02;73.09
75913;BME280;64592;52.168;21.040;2023-02-28T23:00:29;101741.44;;;-1.05;73.26
75913;BME280;64592;52.168;21.040;2023-02-28T23:05:31;101751.13;;;-1.10;74.52
75913;BME280;64592;52.168;21.040;2023-02-28T23:10:33;101752.03;;;-1.14;74.35
75913;BME280;64592;52.168;21.040;2023-02-28T23:15:38;101766.19;;;-1.20;74.75
75913;BME280;64592;52.168;21.040;2023-02-28T23:20:40;101768.84;;;-1.24;74.47
75913;BME280;64592;52.168;21.040;2023-02-28T23:25:42;101766.19;;;-1.26;74.58
75913;BME280;64592;52.168;21.040;2023-02-28T23:30:45;101753.88;;;-1.30;74.72
75913;BME280;64592;52.168;21.040;2023-02-28T23:35:47;101750.38;;;-1.35;75.62
75913;BME280;64592;52.168;21.040;2023-02-28T23:40:49;101744.25;;;-1.41;75.38
75913;BME280;64592;52.168;21.040;2023-02-28T23:45:55;101760.13;;;-1.43;75.34
75913;BME280;64592;52.168;21.040;2023-02-28T23:51:01;101753.06;;;-1.45;75.96
75913;BME280;64592;52.168;21.040;2023-02-28T23:56:09;101776.88;;;-1.50;75.95
